Time;durP1;ratioP1;P1;durP2;ratioP2;P2;SDS_P1;SDS_P2;PMS_P1;PMS_P2;Temp;Humidity;BMP_temperature;BMP_pressure;BME280_temperature;BME280_humidity;BME280_pressure;Samples;Min_cycle;Max_cycle;Signal;HPM_P1;HPM_P2
2021/12/27 00:01:47;;;;;;;;;2.50;2.50;;;;;16.52;84.01;99752.88;5059280;28;63684;-74
2021/12/27 00:04:13;;;;;;;;;3.50;2.75;;;;;16.48;84.32;99748.44;5059256;28;61898;-74
2021/12/27 00:06:38;;;;;;;;;1.25;1.25;;;;;16.49;84.25;99750.19;5060919;28;62432;-74
2021/12/27 00:09:04;;;;;;;;;2.50;2.50;;;;;16.46;84.67;99745.78;5053574;28;61890;-75
2021/12/27 00:11:29;;;;;;;;;3.00;3.00;;;;;16.48;84.63;99735.19;5039771;28;61904;-74
2021/12/27 00:13:55;;;;;;;;;3.00;3.00;;;;;16.55;84.44;99743.16;5054581;28;62026;-74
2021/12/27 00:16:20;;;;;;;;;5.00;1.00;;;;;16.53;84.40;99736.94;5076404;28;61809;-74
2021/12/27 00:18:46;;;;;;;;;2.00;1.00;;;;;16.51;84.37;99729.88;5058325;28;62262;-74
2021/12/27 00:21:11;;;;;;;;;1.50;1.50;;;;;16.56;83.81;99744.06;5059775;28;61856;-74
2021/12/27 00:23:37;;;;;;;;;2.50;1.25;;;;;16.55;84.01;99735.19;5060696;28;61907;-74
2021/12/27 00:26:02;;;;;;;;;4.00;2.00;;;;;16.55;83.73;99737.84;5064370;28;61946;-74
2021/12/27 00:28:30;;;;;;;;;2.25;1.00;;;;;16.58;83.82;99736.97;5041441;28;62101;-74
2021/12/27 00:30:56;;;;;;;;;1.50;1.50;;;;;16.53;83.28;99729.00;5042286;28;61966;-74
2021/12/27 00:33:22;;;;;;;;;2.00;2.00;;;;;16.49;83.73;99721.94;5045588;28;62113;-74
2021/12/27 00:35:48;;;;;;;;;4.50;2.00;;;;;16.48;83.33;99716.66;5073126;28;61824;-74
2021/12/27 00:38:14;;;;;;;;;0.50;0.25;;;;;16.47;83.57;99715.75;5074115;28;62017;-74
2021/12/27 00:40:39;;;;;;;;;1.00;1.00;;;;;16.46;83.48;99713.09;5059539;28;61871;-74
2021/12/27 00:43:05;;;;;;;;;0.50;0.50;;;;;16.47;83.68;99710.44;5060263;28;62270;-74
2021/12/27 00:45:30;;;;;;;;;3.00;2.00;;;;;16.50;83.17;99710.47;5042394;28;62269;-74
2021/12/27 00:47:56;;;;;;;;;1.25;0.50;;;;;16.50;83.32;99714.88;5055887;28;61903;-74
2021/12/27 00:50:21;;;;;;;;;3.25;2.00;;;;;16.45;83.06;99711.31;5063461;28;61893;-74
2021/12/27 00:52:48;;;;;;;;;3.75;2.00;;;;;16.46;83.00;99713.97;5054485;28;61971;-74
2021/12/27 00:55:15;;;;;;;;;3.00;2.00;;;;;16.50;82.93;99714.88;5075690;28;62023;-74
2021/12/27 00:57:40;;;;;;;;;3.00;1.75;;;;;16.51;83.32;99712.22;5052868;28;61773;-74
2021/12/27 01:00:12;;;;;;;;;1.00;1.00;;;;;16.51;82.84;99711.34;5063258;28;62584;-74
2021/12/27 01:02:38;;;;;;;;;2.00;1.00;;;;;16.54;83.23;99709.59;5069802;28;61826;-74
2021/12/27 01:05:05;;;;;;;;;0.00;0.00;;;;;16.49;82.96;99708.69;5043941;28;61916;-74
2021/12/27 01:07:31;;;;;;;;;2.00;0.25;;;;;16.49;82.85;99705.16;5043565;28;62020;-74
2021/12/27 01:12:47;;;;;;;;;5.00;2.00;;;;;16.47;82.44;99702.50;5044649;28;61964;-74
2021/12/27 01:17:47;;;;;;;;;2.00;2.00;;;;;16.54;82.73;99699.00;5044620;28;61720;-74
2021/12/27 01:20:21;;;;;;;;;1.00;1.00;;;;;16.57;82.54;99698.13;5057086;28;63280;-74
2021/12/27 01:22:47;;;;;;;;;1.00;1.00;;;;;16.58;82.67;99694.56;5062843;28;61670;-74
2021/12/27 01:25:12;;;;;;;;;2.00;1.75;;;;;16.51;82.42;99691.03;5062497;28;61876;-74
2021/12/27 01:27:39;;;;;;;;;4.50;1.75;;;;;16.49;82.38;99692.78;5069853;27;62086;-74
2021/12/27 01:30:08;;;;;;;;;1.50;0.00;;;;;16.50;82.52;99685.75;5042830;28;62239;-74
2021/12/27 01:32:39;;;;;;;;;2.00;0.75;;;;;16.47;82.36;99673.34;5046821;28;61973;-74
2021/12/27 01:35:06;;;;;;;;;1.75;0.00;;;;;16.49;82.75;99666.28;5043419;28;61978;-74
2021/12/27 01:37:31;;;;;;;;;2.00;1.00;;;;;16.50;82.66;99670.72;5053758;28;62160;-74
2021/12/27 01:39:57;;;;;;;;;2.50;1.00;;;;;16.53;82.59;99661.91;5062006;28;63817;-74
2021/12/27 01:42:23;;;;;;;;;4.75;2.00;;;;;16.55;82.57;99674.25;5063139;28;61945;-74
2021/12/27 01:44:48;;;;;;;;;0.00;0.00;;;;;16.59;82.49;99669.88;5061170;28;62119;-74
2021/12/27 01:47:14;;;;;;;;;2.25;1.00;;;;;16.56;82.23;99660.16;5061684;28;62098;-74
2021/12/27 01:49:39;;;;;;;;;0.00;0.00;;;;;16.58;82.09;99660.13;5062527;28;61812;-74
2021/12/27 01:52:05;;;;;;;;;3.75;2.25;;;;;16.56;82.24;99653.97;5049764;28;62019;-74
2021/12/27 01:54:31;;;;;;;;;1.75;1.25;;;;;16.60;82.46;99660.16;5042299;28;62212;-74
2021/12/27 01:56:57;;;;;;;;;1.50;0.50;;;;;16.60;82.51;99663.66;5050806;28;61969;-74
2021/12/27 01:59:22;;;;;;;;;0.75;0.75;;;;;16.58;82.10;99661.91;5042324;28;62796;-74
2021/12/27 02:01:47;;;;;;;;;1.50;1.50;;;;;16.55;82.23;99666.31;5043815;28;61833;-74
2021/12/27 02:04:13;;;;;;;;;0.00;0.00;;;;;16.58;81.89;99670.72;5042771;28;62125;-74
2021/12/27 02:06:38;;;;;;;;;5.25;0.25;;;;;16.55;82.34;99652.19;5043028;28;62148;-74
2021/12/27 02:09:04;;;;;;;;;0.75;0.75;;;;;16.56;81.80;99665.44;5043038;28;62882;-74
2021/12/27 02:11:34;;;;;;;;;1.00;1.00;;;;;16.59;82.07;99655.75;5062631;28;62023;-74
2021/12/27 02:14:03;;;;;;;;;2.00;1.00;;;;;16.59;82.25;99658.38;5075594;28;61779;-74
2021/12/27 02:16:28;;;;;;;;;1.00;1.00;;;;;16.54;82.14;99659.25;5042400;28;61858;-74
2021/12/27 02:18:54;;;;;;;;;0.00;0.00;;;;;16.53;82.27;99662.78;5074204;28;64827;-74
2021/12/27 02:21:22;;;;;;;;;0.25;0.25;;;;;16.47;82.57;99653.94;5057703;28;62156;-75
2021/12/27 02:23:49;;;;;;;;;1.00;1.00;;;;;16.47;82.86;99657.47;5060910;28;61789;-74
2021/12/27 02:26:15;;;;;;;;;0.25;0.25;;;;;16.44;83.14;99651.28;5077825;28;62064;-74
2021/12/27 02:28:41;;;;;;;;;0.75;0.75;;;;;16.44;83.33;99648.66;5045174;28;62210;-74
2021/12/27 02:31:08;;;;;;;;;1.25;0.25;;;;;16.46;83.41;99647.75;5045841;28;61751;-74
2021/12/27 02:33:40;;;;;;;;;1.75;1.00;;;;;16.47;83.97;99641.56;5044976;28;61785;-74
2021/12/27 02:36:06;;;;;;;;;0.00;0.00;;;;;16.48;83.87;99635.41;5074176;28;62248;-74
2021/12/27 02:38:34;;;;;;;;;0.00;0.00;;;;;16.52;83.89;99638.97;5058140;28;62084;-74
2021/12/27 02:41:00;;;;;;;;;1.00;1.00;;;;;16.50;83.72;99635.41;5060342;28;61933;-74
2021/12/27 02:43:29;;;;;;;;;0.75;0.25;;;;;16.53;83.83;99641.59;5062330;28;61841;-74
2021/12/27 02:46:00;;;;;;;;;1.00;1.00;;;;;16.51;83.57;99648.63;5077232;27;62165;-74
2021/12/27 02:48:28;;;;;;;;;0.00;0.00;;;;;16.52;83.42;99638.97;5075595;28;63956;-74
2021/12/27 02:50:55;;;;;;;;;4.50;0.50;;;;;16.49;83.35;99634.50;5052952;28;61834;-74
2021/12/27 02:53:22;;;;;;;;;1.00;1.00;;;;;16.51;83.70;99626.56;5051228;28;61885;-74
2021/12/27 02:55:52;;;;;;;;;1.00;1.00;;;;;16.51;83.38;99623.94;5060217;28;62272;-74
2021/12/27 02:58:18;;;;;;;;;1.50;1.00;;;;;16.50;83.21;99622.19;5060017;28;63687;-74
2021/12/27 03:00:49;;;;;;;;;3.00;1.00;;;;;16.50;83.21;99624.81;5047074;28;61777;-74
2021/12/27 03:03:14;;;;;;;;;2.00;0.00;;;;;16.46;83.23;99615.09;5040425;28;62108;-74
2021/12/27 03:05:42;;;;;;;;;2.00;2.00;;;;;16.47;83.02;99611.56;5048895;28;61992;-74
2021/12/27 03:08:13;;;;;;;;;2.25;1.00;;;;;16.48;83.00;99610.69;5040757;28;61750;-74
2021/12/27 03:10:42;;;;;;;;;1.00;1.00;;;;;16.52;83.26;99612.47;5043864;28;61746;-74
2021/12/27 03:13:07;;;;;;;;;1.00;1.00;;;;;16.47;82.84;99615.06;5061770;28;61921;-74
2021/12/27 03:15:33;;;;;;;;;3.00;2.00;;;;;16.48;82.66;99619.50;5061732;28;61937;-74
2021/12/27 03:17:58;;;;;;;;;1.50;1.50;;;;;16.48;82.58;99611.56;5061145;28;61766;-74
2021/12/27 03:20:26;;;;;;;;;0.50;0.50;;;;;16.47;82.66;99608.91;5053501;28;61755;-74
2021/12/27 03:22:53;;;;;;;;;3.00;2.00;;;;;16.48;82.51;99616.88;5054160;28;61956;-74
2021/12/27 03:25:22;;;;;;;;;2.75;1.00;;;;;16.48;82.51;99608.91;5076920;28;62148;-74
2021/12/27 03:27:48;;;;;;;;;1.25;1.00;;;;;16.50;82.55;99609.81;5059404;28;62346;-74
2021/12/27 03:30:18;;;;;;;;;1.00;1.00;;;;;16.50;82.00;99612.44;5059416;28;61814;-74
2021/12/27 03:32:44;;;;;;;;;1.75;1.75;;;;;16.46;82.09;99602.72;5058639;28;61968;-74
2021/12/27 03:35:14;;;;;;;;;3.00;1.25;;;;;16.49;81.96;99602.72;5060394;28;62110;-74
2021/12/27 03:37:46;;;;;;;;;4.00;2.00;;;;;16.50;82.16;99599.22;5060414;28;62030;-74
2021/12/27 03:40:15;;;;;;;;;7.50;1.25;;;;;16.50;82.01;99596.56;5050178;28;61956;-74
2021/12/27 03:42:41;;;;;;;;;6.25;2.25;;;;;16.56;82.16;99603.63;5042816;28;62083;-74
2021/12/27 03:45:08;;;;;;;;;2.25;1.25;;;;;16.59;82.30;99584.22;5041198;28;61778;-74
2021/12/27 03:47:33;;;;;;;;;4.25;1.75;;;;;16.51;81.60;99573.59;5041643;28;61841;-74
2021/12/27 03:49:59;;;;;;;;;6.75;2.50;;;;;16.55;81.81;99572.72;5056186;28;61907;-74
2021/12/27 03:52:24;;;;;;;;;4.50;2.00;;;;;16.57;81.59;99573.59;5045346;28;62124;-74
2021/12/27 03:54:49;;;;;;;;;2.00;2.00;;;;;16.51;81.25;99574.47;5042516;28;62218;-74
2021/12/27 03:57:16;;;;;;;;;2.25;1.75;;;;;16.52;81.78;99563.00;5072402;28;64045;-74
2021/12/27 04:02:08;;;;;;;;;6.00;2.00;;;;;16.55;81.97;99572.72;5061034;28;61932;-74
2021/12/27 04:04:34;;;;;;;;;6.75;3.00;;;;;16.57;81.21;99565.66;5059968;28;61784;-74
2021/12/27 04:07:00;;;;;;;;;3.50;1.50;;;;;16.55;81.33;99568.28;5040423;28;62130;-74
2021/12/27 04:09:26;;;;;;;;;3.00;2.00;;;;;16.52;81.50;99570.09;5047845;28;61846;-74
2021/12/27 04:11:52;;;;;;;;;4.00;2.50;;;;;16.48;81.46;99561.25;5041055;28;61942;-74
2021/12/27 04:14:17;;;;;;;;;3.00;1.00;;;;;16.46;81.20;99563.00;5040289;28;61964;-74
2021/12/27 04:16:43;;;;;;;;;5.25;3.25;;;;;16.48;81.34;99566.53;5057397;28;62758;-74
2021/12/27 04:19:08;;;;;;;;;2.75;2.75;;;;;16.47;81.22;99559.44;5060254;28;61852;-74
2021/12/27 04:21:34;;;;;;;;;7.75;2.75;;;;;16.50;81.41;99561.25;5041696;28;61788;-74
2021/12/27 04:23:59;;;;;;;;;5.00;2.00;;;;;16.49;81.30;99554.16;5047662;28;61881;-74
2021/12/27 04:26:25;;;;;;;;;3.50;3.50;;;;;16.48;81.27;99555.94;5058094;28;61875;-74
2021/12/27 04:28:51;;;;;;;;;3.00;3.00;;;;;16.51;81.66;99558.56;5060741;28;62018;-74
2021/12/27 04:31:17;;;;;;;;;4.00;2.50;;;;;16.52;81.48;99557.72;5059822;28;61962;-74
2021/12/27 04:33:43;;;;;;;;;5.50;1.75;;;;;16.55;81.27;99559.47;5050637;28;61994;-74
2021/12/27 04:36:09;;;;;;;;;8.00;2.00;;;;;16.51;80.92;99545.34;5040061;28;61777;-74
2021/12/27 04:38:34;;;;;;;;;4.50;2.25;;;;;16.53;81.00;99554.16;5048780;28;62059;-74
2021/12/27 04:41:02;;;;;;;;;5.00;3.00;;;;;16.50;81.19;99555.94;5060904;28;61746;-74
2021/12/27 04:43:27;;;;;;;;;8.00;2.00;;;;;16.53;81.30;99556.81;5058199;28;61974;-74
2021/12/27 04:45:54;;;;;;;;;4.25;3.25;;;;;16.58;80.96;99561.22;5058891;28;64851;-74
2021/12/27 04:48:21;;;;;;;;;4.75;4.75;;;;;16.60;81.20;99568.28;5059576;28;62272;-74
2021/12/27 04:50:47;;;;;;;;;2.50;2.00;;;;;16.60;80.92;99564.75;5074418;28;61990;-74
2021/12/27 04:53:13;;;;;;;;;3.00;3.00;;;;;16.59;80.97;99563.88;5060802;28;61921;-74
2021/12/27 04:55:38;;;;;;;;;3.00;2.25;;;;;16.59;80.62;99565.66;5043217;28;62868;-74
2021/12/27 04:58:08;;;;;;;;;3.25;2.25;;;;;16.60;80.96;99570.06;5040468;28;61997;-74
2021/12/27 05:00:33;;;;;;;;;9.25;2.00;;;;;16.62;80.82;99584.19;5071564;28;62242;-74
2021/12/27 05:02:59;;;;;;;;;2.25;2.00;;;;;16.63;80.66;99580.69;5060388;28;61845;-74
2021/12/27 05:05:26;;;;;;;;;4.00;3.00;;;;;16.61;80.70;99575.38;5057084;28;61940;-74
2021/12/27 05:07:52;;;;;;;;;9.25;5.75;;;;;16.60;80.67;99584.19;5040024;28;62100;-74
2021/12/27 05:10:18;;;;;;;;;5.25;2.50;;;;;16.59;80.50;99589.50;5058489;28;61883;-74
2021/12/27 05:12:44;;;;;;;;;4.00;2.00;;;;;16.58;80.29;99580.66;5050824;28;61784;-74
2021/12/27 05:15:11;;;;;;;;;6.00;4.75;;;;;16.61;80.57;99587.75;5059659;28;61964;-74
2021/12/27 05:17:36;;;;;;;;;6.75;3.00;;;;;16.60;80.66;99584.19;5058017;28;61838;-74
2021/12/27 05:20:05;;;;;;;;;3.00;3.00;;;;;16.64;80.57;99582.44;5058472;28;62094;-74
2021/12/27 05:22:33;;;;;;;;;3.00;3.00;;;;;16.66;80.52;99584.19;5060369;28;61979;-74
2021/12/27 05:24:58;;;;;;;;;2.50;2.00;;;;;16.64;80.26;99577.13;5059463;28;62003;-74
2021/12/27 05:27:24;;;;;;;;;7.00;3.00;;;;;16.66;80.18;99578.03;5059159;28;61856;-74
2021/12/27 05:29:54;;;;;;;;;4.50;3.00;;;;;16.68;80.55;99577.13;5060996;28;61832;-74
2021/12/27 05:32:22;;;;;;;;;5.00;3.50;;;;;16.67;80.16;99570.06;5063523;28;62206;-74
2021/12/27 05:34:50;;;;;;;;;5.25;4.75;;;;;16.63;80.23;99564.78;5049298;28;62647;-74
2021/12/27 05:37:15;;;;;;;;;4.00;3.00;;;;;16.59;80.35;99557.72;5063596;28;61927;-74
2021/12/27 05:39:41;;;;;;;;;7.50;2.50;;;;;16.58;80.37;99548.84;5063089;28;61826;-74
2021/12/27 05:42:07;;;;;;;;;4.00;1.00;;;;;16.58;80.33;99548.84;5046312;28;62101;-74
2021/12/27 05:44:32;;;;;;;;;2.00;2.00;;;;;16.55;80.18;99540.94;5043320;28;62094;-74
2021/12/27 05:46:58;;;;;;;;;9.25;4.00;;;;;16.49;80.30;99527.69;5043078;28;61837;-74
2021/12/27 05:49:23;;;;;;;;;8.00;4.25;;;;;16.49;80.59;99525.03;5043114;28;62087;-74
2021/12/27 05:51:49;;;;;;;;;5.75;2.50;;;;;16.46;80.48;99514.44;5075038;28;62618;-74
2021/12/27 05:54:15;;;;;;;;;4.00;4.00;;;;;16.47;80.56;99505.59;5052294;28;61762;-74
2021/12/27 05:56:43;;;;;;;;;7.25;2.00;;;;;16.46;80.58;99498.56;5060568;28;61962;-74
2021/12/27 05:59:09;;;;;;;;;6.50;4.50;;;;;16.40;80.51;99488.84;5058565;27;61933;-74
2021/12/27 06:01:35;;;;;;;;;3.00;3.00;;;;;16.44;81.02;99487.06;5042966;28;62165;-74
2021/12/27 06:04:01;;;;;;;;;6.75;2.00;;;;;16.46;80.99;99477.38;5042093;28;61969;-73
2021/12/27 06:06:26;;;;;;;;;5.00;2.00;;;;;16.48;80.70;99459.72;5041705;28;61770;-74
2021/12/27 06:08:52;;;;;;;;;7.75;2.75;;;;;16.47;80.68;99452.63;5060583;28;61848;-74
2021/12/27 06:11:18;;;;;;;;;5.50;5.00;;;;;16.44;80.57;99436.75;5062596;28;61962;-74
2021/12/27 06:13:44;;;;;;;;;7.50;6.50;;;;;16.44;81.14;99427.03;5046547;28;61985;-74
2021/12/27 06:16:10;;;;;;;;;3.00;3.00;;;;;16.46;80.86;99421.75;5042621;28;61924;-74
2021/12/27 06:18:37;;;;;;;;;4.25;2.50;;;;;16.41;80.70;99412.91;5054633;28;62117;-74
2021/12/27 06:21:04;;;;;;;;;6.75;5.50;;;;;16.42;80.90;99404.97;5078331;27;61804;-74
2021/12/27 06:23:30;;;;;;;;;5.25;4.00;;;;;16.38;80.76;99397.03;5048130;28;61783;-75
2021/12/27 06:25:56;;;;;;;;;7.00;6.00;;;;;16.33;80.82;99384.69;5049387;28;61970;-74
2021/12/27 06:28:21;;;;;;;;;5.00;3.75;;;;;16.30;80.98;99376.75;5042373;28;61913;-74
2021/12/27 06:30:47;;;;;;;;;3.25;1.25;;;;;16.24;80.84;99362.59;5042222;28;61766;-73
2021/12/27 06:33:13;;;;;;;;;6.25;5.00;;;;;16.20;80.87;99359.09;5061968;28;61717;-73
2021/12/27 06:35:38;;;;;;;;;6.00;5.50;;;;;16.12;81.08;99352.94;5043491;28;62150;-73
2021/12/27 06:38:04;;;;;;;;;6.25;4.00;;;;;16.10;81.31;99342.34;5047061;28;62205;-74
2021/12/27 06:40:30;;;;;;;;;10.00;7.50;;;;;16.06;80.72;99330.00;5051436;28;61986;-74
2021/12/27 06:42:57;;;;;;;;;7.00;6.25;;;;;16.13;80.79;99342.34;5066073;28;63777;-74
2021/12/27 06:45:23;;;;;;;;;8.75;5.50;;;;;16.12;80.93;99339.69;5050320;28;62219;-75
2021/12/27 06:47:48;;;;;;;;;9.00;6.00;;;;;16.11;80.16;99351.16;5048378;28;61908;-75
2021/12/27 06:50:15;;;;;;;;;9.00;5.50;;;;;16.09;79.89;99345.88;5050573;28;61909;-74
2021/12/27 06:52:41;;;;;;;;;7.50;6.75;;;;;16.06;79.78;99337.94;5068593;28;63817;-74
2021/12/27 06:55:07;;;;;;;;;8.50;7.50;;;;;16.00;79.93;99350.28;5052660;28;62197;-76
2021/12/27 06:57:33;;;;;;;;;6.00;6.00;;;;;15.97;79.66;99343.25;5064027;27;61968;-75
2021/12/27 06:59:59;;;;;;;;;7.50;7.50;;;;;15.97;79.92;99340.59;5063950;28;62111;-75
2021/12/27 07:02:25;;;;;;;;;7.25;4.00;;;;;16.02;80.06;99343.25;5048411;28;62801;-75
2021/12/27 07:04:50;;;;;;;;;5.00;3.00;;;;;15.90;79.68;99334.44;5051946;28;61954;-73
2021/12/27 07:07:17;;;;;;;;;7.00;4.75;;;;;15.95;79.73;99345.88;5058023;28;61903;-73
2021/12/27 07:09:44;;;;;;;;;7.50;6.25;;;;;15.93;79.96;99354.72;5062083;28;61776;-73
2021/12/27 07:12:10;;;;;;;;;7.50;7.50;;;;;15.93;80.20;99350.28;5074776;28;63564;-73
2021/12/27 07:14:35;;;;;;;;;6.00;5.25;;;;;15.91;80.05;99359.13;5059578;28;61865;-74
2021/12/27 07:17:01;;;;;;;;;9.00;6.50;;;;;15.87;80.18;99346.78;5054384;28;62074;-73
2021/12/27 07:19:27;;;;;;;;;15.00;6.25;;;;;15.85;80.22;99344.16;5062099;28;61977;-73
2021/12/27 07:21:53;;;;;;;;;10.00;7.00;;;;;15.82;80.34;99333.56;5054839;28;61892;-74
2021/12/27 07:24:18;;;;;;;;;5.25;5.25;;;;;15.82;80.37;99341.50;5061289;28;61829;-74
2021/12/27 07:26:44;;;;;;;;;6.75;6.75;;;;;15.77;80.53;99340.63;5061373;28;61884;-77
2021/12/27 07:29:09;;;;;;;;;7.25;6.00;;;;;15.73;80.72;99357.38;5058047;28;62062;-77
2021/12/27 07:31:34;;;;;;;;;5.25;5.25;;;;;15.71;80.30;99360.00;5052912;28;62118;-74
2021/12/27 07:34:01;;;;;;;;;5.50;5.25;;;;;15.66;80.60;99363.47;5049375;28;61924;-74
2021/12/27 07:36:29;;;;;;;;;5.25;5.00;;;;;15.79;80.98;99369.69;5049117;28;61889;-78
2021/12/27 07:38:55;;;;;;;;;8.75;5.25;;;;;15.78;81.21;99368.81;5069139;28;62306;-75
2021/12/27 07:41:20;;;;;;;;;3.00;2.00;;;;;15.78;80.98;99367.94;5054320;28;62138;-76
2021/12/27 07:43:46;;;;;;;;;6.75;6.25;;;;;15.72;81.04;99372.38;5065964;28;61982;-75
2021/12/27 07:46:11;;;;;;;;;5.50;5.00;;;;;15.71;80.16;99361.75;5047475;28;61919;-74
2021/12/27 07:48:37;;;;;;;;;6.25;4.75;;;;;15.71;80.85;99364.38;5041731;28;62014;-74
2021/12/27 07:51:02;;;;;;;;;6.75;6.00;;;;;15.74;80.39;99370.59;5049764;28;61805;-73
2021/12/27 07:53:28;;;;;;;;;4.75;4.75;;;;;15.77;80.62;99360.88;5060029;28;62026;-72
2021/12/27 07:55:53;;;;;;;;;4.50;4.50;;;;;15.72;80.33;99353.84;5050865;28;61936;-76
2021/12/27 07:58:19;;;;;;;;;9.00;5.00;;;;;15.74;80.45;99354.72;5044022;28;61778;-74
2021/12/27 08:00:50;;;;;;;;;4.75;4.75;;;;;15.77;80.79;99355.59;5054125;28;63065;-74
2021/12/27 08:03:16;;;;;;;;;8.25;4.25;;;;;15.75;80.86;99358.25;5047565;28;61853;-74
2021/12/27 08:05:42;;;;;;;;;7.75;5.50;;;;;15.75;80.33;99350.31;5053941;28;62069;-74
2021/12/27 08:08:07;;;;;;;;;2.75;2.75;;;;;15.77;79.72;99359.13;5047215;28;62092;-74
2021/12/27 08:10:33;;;;;;;;;3.25;2.25;;;;;15.71;79.15;99356.44;5046207;28;61998;-74
2021/12/27 08:12:58;;;;;;;;;5.25;2.75;;;;;15.66;79.72;99353.81;5046003;28;62730;-74
2021/12/27 08:15:24;;;;;;;;;5.25;3.75;;;;;15.67;79.87;99338.81;5065768;28;61934;-74
2021/12/27 08:17:49;;;;;;;;;4.00;4.00;;;;;15.71;79.59;99349.41;5049628;28;61928;-74
2021/12/27 08:20:16;;;;;;;;;3.25;3.25;;;;;15.67;78.75;99333.53;5048161;27;63315;-74
2021/12/27 08:22:42;;;;;;;;;3.00;3.00;;;;;15.69;79.08;99337.06;5049089;28;62139;-74
2021/12/27 08:25:07;;;;;;;;;5.25;3.00;;;;;15.71;79.81;99343.22;5051559;28;61931;-75
2021/12/27 08:27:35;;;;;;;;;3.00;2.00;;;;;15.67;78.55;99333.53;5054628;28;62167;-74
2021/12/27 08:30:04;;;;;;;;;2.25;2.25;;;;;15.66;79.11;99335.28;5049772;28;62081;-74
2021/12/27 08:32:31;;;;;;;;;8.00;3.00;;;;;15.58;78.10;99339.69;5048903;28;62185;-74
2021/12/27 08:34:57;;;;;;;;;5.00;3.25;;;;;15.63;78.25;99334.41;5051124;28;61869;-75
2021/12/27 08:37:22;;;;;;;;;6.25;2.00;;;;;15.62;77.97;99330.00;5046213;28;62070;-75
2021/12/27 08:39:48;;;;;;;;;3.00;3.00;;;;;15.69;78.37;99331.75;5051042;28;62321;-75
2021/12/27 08:42:13;;;;;;;;;5.00;2.00;;;;;15.71;78.59;99330.91;5049334;28;61911;-75
2021/12/27 08:44:39;;;;;;;;;7.25;3.75;;;;;15.76;78.64;99338.84;5047096;28;62482;-75
2021/12/27 08:47:06;;;;;;;;;6.25;3.00;;;;;15.82;78.28;99322.97;5044995;28;61962;-75
2021/12/27 08:49:31;;;;;;;;;6.25;5.00;;;;;15.82;79.09;99330.03;5059559;28;63869;-74
2021/12/27 08:51:57;;;;;;;;;4.00;2.50;;;;;15.87;78.39;99323.81;5043600;28;61904;-74
2021/12/27 08:54:22;;;;;;;;;6.00;3.50;;;;;15.93;78.32;99317.66;5042752;28;62364;-74
2021/12/27 08:56:48;;;;;;;;;3.00;2.00;;;;;16.00;78.15;99313.25;5042380;28;61839;-74
2021/12/27 08:59:13;;;;;;;;;6.00;2.00;;;;;16.09;77.73;99313.25;5041298;28;61738;-74
2021/12/27 09:01:39;;;;;;;;;3.00;3.00;;;;;16.07;77.46;99310.59;5055516;28;61822;-75
2021/12/27 09:04:04;;;;;;;;;2.00;2.00;;;;;16.10;76.65;99315.00;5044766;28;61918;-75
2021/12/27 09:06:33;;;;;;;;;5.50;2.75;;;;;16.08;76.69;99312.34;5043236;28;62171;-75
2021/12/27 09:08:59;;;;;;;;;3.25;2.00;;;;;16.09;76.60;99307.97;5043609;28;62568;-75
2021/12/27 09:11:25;;;;;;;;;2.50;2.50;;;;;16.11;76.73;99311.44;5044013;28;62048;-75
2021/12/27 09:13:50;;;;;;;;;6.25;2.00;;;;;16.03;76.33;99310.59;5044184;28;61790;-75
2021/12/27 09:16:16;;;;;;;;;3.00;3.00;;;;;16.01;76.85;99315.03;5044568;28;61835;-75
2021/12/27 09:18:41;;;;;;;;;4.25;2.50;;;;;15.98;76.45;99307.97;5043545;28;61794;-75
2021/12/27 09:21:07;;;;;;;;;3.25;3.25;;;;;16.00;76.50;99310.59;5044255;28;61906;-75
2021/12/27 09:23:32;;;;;;;;;5.00;5.00;;;;;16.05;76.77;99311.50;5042438;28;61711;-75
2021/12/27 09:25:58;;;;;;;;;7.00;5.00;;;;;16.04;76.93;99301.78;5042840;28;61772;-75
2021/12/27 09:28:23;;;;;;;;;5.75;3.00;;;;;16.09;76.67;99313.25;5043609;28;61886;-75
2021/12/27 09:30:49;;;;;;;;;5.00;3.50;;;;;16.08;76.34;99308.81;5044837;28;61852;-75
2021/12/27 09:33:15;;;;;;;;;3.25;2.00;;;;;16.09;76.64;99308.81;5064192;28;62394;-75
2021/12/27 09:35:40;;;;;;;;;3.75;1.25;;;;;16.07;76.05;99305.31;5063916;28;61810;-75
2021/12/27 09:38:06;;;;;;;;;2.50;2.50;;;;;16.10;76.03;99294.69;5063518;28;63260;-75
2021/12/27 09:40:32;;;;;;;;;1.75;1.25;;;;;16.08;76.26;99298.22;5064146;28;62039;-75
2021/12/27 09:42:58;;;;;;;;;4.75;3.00;;;;;16.06;76.45;99292.94;5062874;28;61859;-75
2021/12/27 09:45:23;;;;;;;;;4.75;1.00;;;;;16.11;76.73;99292.91;5063903;28;61708;-75
2021/12/27 09:47:51;;;;;;;;;3.00;3.00;;;;;16.07;77.29;99288.53;5063386;28;62151;-75
2021/12/27 09:50:32;;;;;;;;;0.25;0.25;;;;;16.05;77.15;99283.25;5064039;28;61914;-75
2021/12/27 09:52:57;;;;;;;;;2.00;2.00;;;;;16.03;76.90;99289.44;5062582;28;62079;-75
2021/12/27 09:55:23;;;;;;;;;3.50;3.50;;;;;16.07;77.80;99291.19;5064008;28;61781;-75
2021/12/27 09:57:49;;;;;;;;;2.00;2.00;;;;;16.09;78.02;99284.13;5063212;28;62645;-75
2021/12/27 10:00:16;;;;;;;;;2.75;2.00;;;;;16.08;77.29;99287.66;5063940;28;62232;-75
2021/12/27 10:02:42;;;;;;;;;4.00;3.00;;;;;16.06;77.52;99300.88;5062211;27;62434;-75
2021/12/27 10:05:08;;;;;;;;;4.25;4.25;;;;;16.10;77.96;99288.53;5062916;28;62086;-75
2021/12/27 10:07:41;;;;;;;;;6.00;2.25;;;;;16.14;77.74;99295.59;5062880;28;63198;-75
2021/12/27 10:10:08;;;;;;;;;2.50;2.50;;;;;16.18;77.27;99297.34;5063666;28;61904;-75
2021/12/27 10:12:34;;;;;;;;;4.25;2.75;;;;;16.12;78.03;99295.56;5062265;28;62091;-75
2021/12/27 10:15:01;;;;;;;;;2.00;2.00;;;;;16.14;78.13;99299.09;5063431;28;61990;-75
2021/12/27 10:17:30;;;;;;;;;3.25;3.25;;;;;16.12;78.42;99295.56;5063127;28;61871;-75
2021/12/27 10:20:07;;;;;;;;;2.50;2.50;;;;;16.07;78.15;99293.84;5063473;28;61810;-75
2021/12/27 10:22:38;;;;;;;;;5.75;2.25;;;;;16.08;78.07;99285.00;5063491;28;61896;-75
2021/12/27 10:25:08;;;;;;;;;3.50;1.00;;;;;16.08;78.36;99285.00;5063954;28;61986;-75
2021/12/27 10:27:36;;;;;;;;;1.00;1.00;;;;;16.09;78.77;99284.13;5062788;28;61690;-75
2021/12/27 10:30:09;;;;;;;;;2.00;2.00;;;;;16.11;78.57;99285.88;5061960;28;61877;-75
2021/12/27 10:32:35;;;;;;;;;3.00;3.00;;;;;16.11;78.70;99288.53;5064277;27;61925;-75
2021/12/27 10:35:06;;;;;;;;;2.00;2.00;;;;;16.14;78.54;99277.91;5063117;28;61817;-75
2021/12/27 10:37:32;;;;;;;;;6.50;2.00;;;;;16.17;78.51;99273.50;5062825;28;63125;-75
2021/12/27 10:39:57;;;;;;;;;1.25;1.25;;;;;16.19;78.08;99272.59;5062892;28;62041;-75
2021/12/27 10:42:33;;;;;;;;;2.75;1.00;;;;;16.18;78.07;99270.00;5061950;28;61834;-75
2021/12/27 10:45:03;;;;;;;;;4.75;4.00;;;;;16.20;78.30;99270.88;5063259;28;62043;-75
2021/12/27 10:47:33;;;;;;;;;4.25;2.00;;;;;16.26;77.96;99273.47;5062529;28;61974;-75
2021/12/27 10:50:26;;;;;;;;;2.00;2.00;;;;;16.26;77.94;99269.09;5060280;28;61689;-75
2021/12/27 10:52:54;;;;;;;;;2.00;2.00;;;;;16.29;77.79;99268.19;5056667;28;62173;-75
2021/12/27 10:55:30;;;;;;;;;2.75;2.75;;;;;16.26;77.87;99269.09;5062785;28;61856;-75
2021/12/27 10:58:09;;;;;;;;;3.00;3.00;;;;;16.32;77.97;99279.66;5062077;28;61848;-75
2021/12/27 11:00:36;;;;;;;;;3.75;2.75;;;;;16.23;77.64;99277.00;5062659;28;61750;-75
2021/12/27 11:03:02;;;;;;;;;4.00;3.00;;;;;16.23;77.67;99284.97;5063128;28;61856;-75
2021/12/27 11:05:30;;;;;;;;;5.50;3.00;;;;;16.27;77.82;99285.84;5061767;28;61880;-75
2021/12/27 11:08:03;;;;;;;;;3.25;2.25;;;;;16.28;77.67;99288.50;5061991;28;62879;-75
2021/12/27 11:10:32;;;;;;;;;2.50;2.25;;;;;16.30;78.41;99288.47;5062957;28;61805;-75
2021/12/27 11:12:59;;;;;;;;;3.50;3.50;;;;;16.35;78.56;99284.06;5062812;28;61774;-75
2021/12/27 11:15:28;;;;;;;;;1.75;1.75;;;;;16.35;77.94;99284.06;5062984;28;61763;-75
2021/12/27 11:17:55;;;;;;;;;2.25;2.25;;;;;16.39;77.78;99292.84;5061865;28;62686;-75
2021/12/27 11:20:20;;;;;;;;;3.00;1.75;;;;;16.43;77.38;99302.53;5062901;28;61761;-75
2021/12/27 11:22:46;;;;;;;;;2.75;2.75;;;;;16.48;77.95;99298.13;5062768;28;61828;-75
2021/12/27 11:25:40;;;;;;;;;2.00;2.00;;;;;16.53;77.57;99304.28;5062272;28;61948;-75
2021/12/27 11:28:23;;;;;;;;;1.00;1.00;;;;;16.51;77.20;99298.97;5060816;28;62676;-75
2021/12/27 11:30:49;;;;;;;;;2.75;2.25;;;;;16.51;77.31;99290.16;5062329;28;62038;-75
2021/12/27 11:33:16;;;;;;;;;1.00;1.00;;;;;16.55;77.37;99291.91;5062318;28;61940;-75
2021/12/27 11:35:51;;;;;;;;;0.00;0.00;;;;;16.64;76.98;99293.66;5062946;28;61909;-75
2021/12/27 11:38:34;;;;;;;;;2.50;2.50;;;;;16.83;76.75;99282.09;5061997;28;62804;-75
2021/12/27 11:41:02;;;;;;;;;4.50;3.00;;;;;17.09;76.36;99274.00;5062589;28;61802;-75